createdAt,value
2022-10-20T00:00:51.969Z,2.00
2022-10-20T00:01:55.749Z,2.43
2022-10-20T00:02:59.316Z,3.00
2022-10-20T00:04:02.971Z,4.00
2022-10-20T00:05:06.751Z,3.14
2022-10-20T00:06:10.032Z,2.14
2022-10-20T00:07:13.773Z,2.43
2022-10-20T00:08:17.313Z,2.86
2022-10-20T00:09:20.907Z,3.12
2022-10-20T00:10:24.209Z,3.00
2022-10-20T00:11:27.691Z,3.00
2022-10-20T00:12:31.163Z,3.00
2022-10-20T00:13:34.558Z,3.29
2022-10-20T00:14:38.006Z,3.29
2022-10-20T00:15:41.645Z,2.75
2022-10-20T00:16:45.024Z,2.43
2022-10-20T00:17:48.618Z,3.00
2022-10-20T00:18:51.995Z,3.00
2022-10-20T00:19:55.797Z,3.14
2022-10-20T00:20:59.389Z,3.25
2022-10-20T00:22:02.871Z,2.71
2022-10-20T00:23:06.468Z,4.00
2022-10-20T00:24:10.159Z,3.43
2022-10-20T00:25:13.853Z,3.00
2022-10-20T00:26:17.354Z,3.43
2022-10-20T00:27:20.629Z,3.57
2022-10-20T00:28:24.120Z,4.00
2022-10-20T00:29:27.918Z,3.57
2022-10-20T00:30:31.512Z,3.62
2022-10-20T00:31:35.300Z,3.29
2022-10-20T00:32:38.995Z,3.86
2022-10-20T00:33:42.713Z,3.37
2022-10-20T00:34:46.190Z,3.43
2022-10-20T00:35:50.076Z,3.57
2022-10-20T00:36:53.771Z,2.86
2022-10-20T00:37:57.455Z,2.43
2022-10-20T00:39:01.168Z,3.00
2022-10-20T00:40:04.654Z,3.00
2022-10-20T00:41:08.138Z,3.29
2022-10-20T00:42:11.597Z,3.00
2022-10-20T00:43:15.349Z,3.33
2022-10-20T00:44:18.920Z,4.00
2022-10-20T00:45:22.609Z,4.00
2022-10-20T00:46:26.091Z,3.57
2022-10-20T00:47:29.490Z,3.29
2022-10-20T00:48:32.865Z,4.00
2022-10-20T00:49:36.460Z,3.29
2022-10-20T00:50:40.036Z,3.50
2022-10-20T00:51:44.053Z,3.57
2022-10-20T00:52:47.772Z,3.50
2022-10-20T00:53:51.542Z,4.25
2022-10-20T00:54:55.140Z,4.50
2022-10-20T00:55:58.623Z,3.00
2022-10-20T00:58:06.521Z,3.00
2022-10-20T00:59:10.417Z,2.86
2022-10-20T01:00:13.771Z,2.57
2022-10-20T01:01:17.123Z,2.33
2022-10-20T01:02:20.687Z,2.57
2022-10-20T01:03:24.493Z,2.43
2022-10-20T01:04:28.173Z,2.00
2022-10-20T01:05:31.860Z,2.00
2022-10-20T01:06:35.384Z,1.43
2022-10-20T01:07:39.138Z,1.00
2022-10-20T01:08:43.426Z,1.62
2022-10-20T01:09:47.064Z,2.25
2022-10-20T01:10:50.774Z,2.75
2022-10-20T01:11:54.245Z,2.57
2022-10-20T01:12:57.540Z,2.00
2022-10-20T01:14:01.110Z,2.43
2022-10-20T01:15:05.004Z,2.29
2022-10-20T01:16:08.605Z,1.57
2022-10-20T01:17:13.215Z,1.50
2022-10-20T01:18:16.705Z,2.00
2022-10-20T01:19:20.138Z,0.86
2022-10-20T01:20:23.477Z,0.00
2022-10-20T01:21:26.742Z,0.86
2022-10-20T01:22:30.343Z,1.33
2022-10-20T01:23:34.452Z,2.00
2022-10-20T01:24:40.912Z,1.25
2022-10-20T01:25:44.728Z,1.50
2022-10-20T01:26:48.306Z,1.87
2022-10-20T01:27:51.889Z,2.14
2022-10-20T01:28:55.692Z,1.57
2022-10-20T01:29:59.386Z,1.50
2022-10-20T01:31:02.781Z,1.57
2022-10-20T01:32:06.085Z,1.71
2022-10-20T01:33:09.454Z,1.00
2022-10-20T01:34:13.132Z,1.00
2022-10-20T01:35:16.728Z,1.00
2022-10-20T01:36:20.527Z,1.43
2022-10-20T01:37:34.195Z,1.50
2022-10-20T01:38:28.728Z,1.62
2022-10-20T01:39:32.149Z,1.00
2022-10-20T01:40:35.708Z,1.00
2022-10-20T01:41:39.108Z,1.00
2022-10-20T01:42:42.786Z,1.00
2022-10-20T01:43:46.167Z,1.25
2022-10-20T01:44:49.556Z,1.43
2022-10-20T01:45:53.052Z,1.00
2022-10-20T01:46:56.539Z,0.86
2022-10-20T01:47:59.721Z,1.00
2022-10-20T01:49:03.661Z,1.14
2022-10-20T01:50:07.406Z,0.88
2022-10-20T01:51:11.932Z,1.00
2022-10-20T01:52:15.422Z,0.88
2022-10-20T01:53:19.012Z,1.00
2022-10-20T01:54:22.489Z,0.50
2022-10-20T01:55:25.988Z,1.00
2022-10-20T01:56:29.995Z,0.00
2022-10-20T01:57:33.683Z,0.00
2022-10-20T01:58:37.282Z,0.50
2022-10-20T01:59:40.971Z,1.00
2022-10-20T02:00:44.951Z,1.00
2022-10-20T02:01:48.475Z,1.25
2022-10-20T02:02:52.363Z,1.14
2022-10-20T02:03:56.261Z,1.00
2022-10-20T02:05:00.148Z,1.00
2022-10-20T02:06:03.745Z,1.00
2022-10-20T02:07:07.434Z,1.29
2022-10-20T02:08:10.623Z,0.57
2022-10-20T02:09:14.419Z,1.00
2022-10-20T02:10:17.749Z,1.00
2022-10-20T02:11:21.098Z,0.71
2022-10-20T02:12:24.460Z,0.17
2022-10-20T02:13:27.731Z,0.43
2022-10-20T02:14:31.554Z,1.00
2022-10-20T02:15:35.449Z,1.00
2022-10-20T02:16:39.349Z,1.00
2022-10-20T02:17:43.147Z,0.57
2022-10-20T02:18:46.777Z,1.00
2022-10-20T02:19:50.665Z,0.71
2022-10-20T02:20:54.438Z,1.00
2022-10-20T02:21:57.830Z,0.88
2022-10-20T02:23:01.309Z,1.57
2022-10-20T02:24:04.701Z,1.43
2022-10-20T02:25:08.073Z,0.67
2022-10-20T02:26:11.471Z,1.43
2022-10-20T02:27:15.270Z,0.86
2022-10-20T02:28:18.562Z,0.43
2022-10-20T02:29:21.823Z,1.00
2022-10-20T02:30:25.250Z,1.00
2022-10-20T02:31:29.021Z,1.00
2022-10-20T02:32:33.088Z,0.71
2022-10-20T02:33:36.913Z,0.75
2022-10-20T02:34:42.477Z,1.00
2022-10-20T02:35:45.741Z,1.00
2022-10-20T02:36:49.461Z,1.00
2022-10-20T02:37:53.226Z,1.25
2022-10-20T02:38:57.123Z,1.43
2022-10-20T02:40:01.335Z,0.43
2022-10-20T02:41:05.029Z,1.50
2022-10-20T02:42:08.817Z,0.57
2022-10-20T02:43:12.214Z,0.43
2022-10-20T02:44:15.390Z,1.33
2022-10-20T02:45:18.772Z,1.33
2022-10-20T02:46:22.167Z,0.71
2022-10-20T02:47:25.679Z,1.00
2022-10-20T02:48:29.549Z,0.71
2022-10-20T02:49:33.292Z,0.25
2022-10-20T02:50:37.037Z,0.50
2022-10-20T02:51:40.744Z,1.00
2022-10-20T02:52:44.233Z,0.88
2022-10-20T02:53:47.852Z,1.00
2022-10-20T02:54:51.615Z,0.25
2022-10-20T02:55:55.675Z,0.43
2022-10-20T02:56:59.370Z,0.00
2022-10-20T02:58:02.922Z,0.37
2022-10-20T02:59:06.590Z,0.00
2022-10-20T03:00:10.235Z,0.00
2022-10-20T03:01:13.708Z,0.00
2022-10-20T03:02:17.160Z,0.00
2022-10-20T03:03:20.863Z,0.29
2022-10-20T03:05:27.320Z,0.00
2022-10-20T03:06:30.808Z,0.00
2022-10-20T03:07:34.262Z,0.00
2022-10-20T03:08:38.493Z,0.00
2022-10-20T03:09:41.894Z,0.43
2022-10-20T03:10:45.391Z,0.00
2022-10-20T03:11:48.870Z,0.00
2022-10-20T03:12:52.202Z,0.00
2022-10-20T03:13:55.757Z,0.00
2022-10-20T03:14:59.448Z,0.00
2022-10-20T03:16:03.041Z,0.29
2022-10-20T03:17:06.619Z,0.14
2022-10-20T03:18:10.311Z,0.00
2022-10-20T03:19:13.734Z,0.00
2022-10-20T03:20:16.985Z,0.00
2022-10-20T03:21:20.681Z,0.00
2022-10-20T03:22:24.108Z,0.00
2022-10-20T03:23:27.238Z,0.33
2022-10-20T03:24:30.948Z,0.67
2022-10-20T03:25:34.741Z,0.43
2022-10-20T03:26:38.325Z,0.50
2022-10-20T03:27:41.810Z,0.14
2022-10-20T03:28:45.518Z,0.43
2022-10-20T03:29:48.901Z,0.71
2022-10-20T03:30:52.390Z,0.29
2022-10-20T03:31:56.316Z,0.00
2022-10-20T03:32:59.981Z,0.00
2022-10-20T03:34:03.678Z,0.00
2022-10-20T03:35:07.684Z,0.00
2022-10-20T03:36:11.167Z,0.43
2022-10-20T03:37:14.857Z,0.57
2022-10-20T03:38:18.455Z,0.00
2022-10-20T03:39:22.146Z,0.57
2022-10-20T03:40:25.537Z,1.14
2022-10-20T03:41:29.329Z,1.57
2022-10-20T03:42:33.452Z,0.71
2022-10-20T03:43:37.446Z,0.13
2022-10-20T03:44:41.231Z,0.86
2022-10-20T03:45:44.921Z,0.57
2022-10-20T03:46:48.712Z,0.86
2022-10-20T03:47:52.229Z,1.00
2022-10-20T03:48:56.008Z,0.86
2022-10-20T03:49:59.925Z,0.71
2022-10-20T03:51:03.702Z,0.50
2022-10-20T03:52:07.191Z,0.86
2022-10-20T03:53:11.389Z,0.86
2022-10-20T03:54:14.595Z,2.00
2022-10-20T03:55:18.678Z,1.57
2022-10-20T03:56:22.483Z,1.12
2022-10-20T03:57:25.867Z,1.00
2022-10-20T03:58:29.809Z,1.00
2022-10-20T03:59:33.552Z,1.50
2022-10-20T04:00:37.561Z,0.57
2022-10-20T04:01:41.085Z,1.14
2022-10-20T04:02:44.443Z,0.71
2022-10-20T04:03:48.167Z,1.43
2022-10-20T04:04:51.931Z,1.43
2022-10-20T04:05:55.612Z,0.86
2022-10-20T04:06:59.306Z,1.00
2022-10-20T04:08:03.083Z,1.00
2022-10-20T04:09:07.584Z,1.29
2022-10-20T04:10:10.885Z,1.78
2022-10-20T04:11:14.603Z,2.33
2022-10-20T04:12:17.785Z,0.86
2022-10-20T04:13:21.092Z,1.00
2022-10-20T04:14:24.757Z,1.43
2022-10-20T04:15:28.353Z,1.29
2022-10-20T04:16:32.039Z,1.29
2022-10-20T04:17:35.410Z,1.57
2022-10-20T04:18:39.334Z,1.00
2022-10-20T04:19:43.351Z,1.50
2022-10-20T04:20:47.026Z,0.86
2022-10-20T04:21:51.132Z,0.86
2022-10-20T04:22:54.733Z,1.00
2022-10-20T04:23:58.422Z,1.00
2022-10-20T04:25:02.309Z,1.86
2022-10-20T04:26:05.890Z,2.25
2022-10-20T04:27:09.495Z,1.57
2022-10-20T04:28:13.088Z,1.25
2022-10-20T04:29:16.775Z,1.14
2022-10-20T04:30:20.171Z,1.71
2022-10-20T04:31:23.453Z,1.71
2022-10-20T04:32:26.952Z,1.43
2022-10-20T04:33:30.469Z,1.57
2022-10-20T04:34:34.334Z,1.00
2022-10-20T04:35:38.361Z,0.86
2022-10-20T04:36:41.917Z,0.25
2022-10-20T04:37:46.023Z,0.75
2022-10-20T04:38:49.617Z,0.71
2022-10-20T04:39:53.407Z,1.50
2022-10-20T04:40:58.112Z,1.71
2022-10-20T04:42:01.438Z,0.62
2022-10-20T04:43:05.209Z,0.86
2022-10-20T04:44:08.495Z,1.00
2022-10-20T04:45:12.085Z,0.86
2022-10-20T04:46:15.771Z,0.50
2022-10-20T04:47:19.566Z,1.00
2022-10-20T04:48:23.069Z,1.00
2022-10-20T04:49:26.449Z,1.43
2022-10-20T04:50:30.046Z,0.71
2022-10-20T04:51:33.839Z,0.00
2022-10-20T04:52:37.327Z,0.43
2022-10-20T04:53:41.031Z,0.57
2022-10-20T04:54:44.567Z,0.43
2022-10-20T04:55:48.711Z,0.50
2022-10-20T04:56:52.406Z,0.13
2022-10-20T04:57:56.110Z,0.00
2022-10-20T04:58:59.697Z,0.43
2022-10-20T05:00:03.595Z,0.57
2022-10-20T05:01:07.182Z,0.00
2022-10-20T05:02:10.645Z,0.43
2022-10-20T05:03:14.264Z,0.57
2022-10-20T05:04:17.552Z,0.71
2022-10-20T05:05:21.039Z,0.57
2022-10-20T05:06:24.734Z,0.50
2022-10-20T05:07:28.332Z,1.00
2022-10-20T05:08:32.253Z,0.71
2022-10-20T05:09:35.812Z,0.57
2022-10-20T05:10:39.401Z,0.14
2022-10-20T05:11:43.099Z,0.43
2022-10-20T05:12:46.998Z,1.00
2022-10-20T05:13:50.785Z,0.50
2022-10-20T05:14:54.491Z,0.43
2022-10-20T05:15:58.413Z,1.00
2022-10-20T05:17:03.266Z,0.62
2022-10-20T05:18:07.101Z,0.62
2022-10-20T05:19:11.107Z,0.43
2022-10-20T05:20:14.642Z,0.88
2022-10-20T05:21:18.289Z,1.00
2022-10-20T05:22:22.053Z,0.43
2022-10-20T05:23:25.461Z,0.71
2022-10-20T05:24:30.142Z,0.43
2022-10-20T05:25:37.135Z,2.00
2022-10-20T05:26:39.017Z,2.00
2022-10-20T05:27:42.826Z,0.50
2022-10-20T05:28:47.015Z,0.86
2022-10-20T05:29:50.600Z,1.57
2022-10-20T05:30:55.645Z,0.71
2022-10-20T05:31:58.890Z,1.00
2022-10-20T05:33:02.502Z,0.43
2022-10-20T05:34:06.394Z,0.62
2022-10-20T05:35:11.057Z,0.50
2022-10-20T05:36:18.041Z,1.00
2022-10-20T05:37:20.775Z,1.12
2022-10-20T05:38:24.345Z,1.50
2022-10-20T05:39:28.462Z,1.00
2022-10-20T05:40:32.966Z,1.00
2022-10-20T05:41:38.918Z,1.00
2022-10-20T05:42:41.587Z,1.50
2022-10-20T05:43:45.492Z,1.25
2022-10-20T05:44:49.433Z,1.00
2022-10-20T05:45:53.306Z,1.43
2022-10-20T05:46:56.782Z,1.50
2022-10-20T05:48:00.774Z,0.86
2022-10-20T05:49:04.257Z,1.50
2022-10-20T05:50:07.681Z,1.00
2022-10-20T05:51:13.805Z,0.88
2022-10-20T05:52:15.946Z,0.37
2022-10-20T05:53:19.768Z,1.14
2022-10-20T05:54:23.345Z,1.00
2022-10-20T05:55:27.039Z,1.00
2022-10-20T05:56:30.423Z,1.00
2022-10-20T05:57:34.123Z,2.00
2022-10-20T05:58:38.253Z,1.57
2022-10-20T05:59:41.819Z,0.88
2022-10-20T06:00:45.395Z,0.62
2022-10-20T06:01:49.401Z,1.00
2022-10-20T06:02:53.306Z,1.00
2022-10-20T06:03:56.892Z,1.50
2022-10-20T06:05:01.220Z,2.00
2022-10-20T06:06:05.013Z,2.00
2022-10-20T06:07:08.894Z,2.00
2022-10-20T06:08:12.395Z,1.87
2022-10-20T06:09:16.085Z,2.14
2022-10-20T06:10:19.784Z,2.00
2022-10-20T06:11:23.362Z,2.14
2022-10-20T06:12:26.772Z,2.57
2022-10-20T06:13:30.411Z,2.43
2022-10-20T06:14:33.930Z,2.71
2022-10-20T06:15:37.732Z,3.43
2022-10-20T06:16:41.828Z,3.14
2022-10-20T06:17:46.048Z,2.50
2022-10-20T06:18:49.873Z,2.50
2022-10-20T06:19:53.320Z,2.14
2022-10-20T06:20:57.115Z,2.37
2022-10-20T06:22:03.976Z,2.43
2022-10-20T06:23:06.050Z,2.50
2022-10-20T06:24:09.751Z,2.00
2022-10-20T06:25:13.432Z,2.00
2022-10-20T06:26:16.651Z,2.00
2022-10-20T06:27:20.620Z,3.14
2022-10-20T06:28:24.303Z,2.50
2022-10-20T06:29:27.710Z,2.50
2022-10-20T06:30:31.089Z,3.14
2022-10-20T06:31:35.204Z,3.71
2022-10-20T06:32:39.265Z,3.50
2022-10-20T06:33:43.087Z,4.00
2022-10-20T06:34:46.888Z,3.25
2022-10-20T06:35:50.575Z,3.14
2022-10-20T06:36:54.268Z,2.75
2022-10-20T06:37:57.985Z,3.00
2022-10-20T06:39:01.359Z,3.25
2022-10-20T06:40:04.736Z,2.86
2022-10-20T06:41:08.289Z,2.29
2022-10-20T06:42:12.367Z,3.43
2022-10-20T06:43:16.352Z,3.57
2022-10-20T06:44:19.949Z,2.86
2022-10-20T06:45:23.305Z,3.83
2022-10-20T06:46:26.674Z,4.00
2022-10-20T06:47:30.189Z,3.43
2022-10-20T06:48:33.777Z,4.00
2022-10-20T06:49:37.367Z,3.29
2022-10-20T06:50:40.764Z,3.00
2022-10-20T06:51:44.175Z,3.14
2022-10-20T06:52:47.327Z,3.00
2022-10-20T06:53:50.924Z,3.29
2022-10-20T06:54:54.302Z,5.29
2022-10-20T06:55:57.782Z,5.29
2022-10-20T06:57:01.283Z,4.43
2022-10-20T06:58:05.079Z,5.00
2022-10-20T06:59:08.679Z,5.00
2022-10-20T07:00:12.360Z,4.50
2022-10-20T07:01:16.134Z,4.29
2022-10-20T07:02:19.642Z,4.50
2022-10-20T07:03:24.159Z,5.00
2022-10-20T07:04:28.147Z,5.00
2022-10-20T07:05:31.954Z,4.43
2022-10-20T07:06:35.857Z,4.71
2022-10-20T07:07:39.860Z,4.25
2022-10-20T07:08:43.770Z,4.00
2022-10-20T07:09:47.875Z,4.00
2022-10-20T07:10:51.553Z,4.00
2022-10-20T07:11:55.147Z,5.00
2022-10-20T07:12:58.631Z,4.57
2022-10-20T07:14:02.329Z,4.00
2022-10-20T07:15:05.949Z,4.00
2022-10-20T07:16:09.511Z,4.00
2022-10-20T07:17:13.208Z,4.00
2022-10-20T07:18:16.385Z,4.00
2022-10-20T07:19:20.072Z,4.33
2022-10-20T07:20:23.742Z,4.50
2022-10-20T07:21:30.603Z,3.57
2022-10-20T07:22:31.563Z,2.87
2022-10-20T07:23:35.158Z,3.86
2022-10-20T07:24:38.752Z,4.14
2022-10-20T07:25:42.442Z,2.50
2022-10-20T07:26:45.979Z,3.57
2022-10-20T07:27:49.634Z,4.50
2022-10-20T07:28:55.806Z,5.14
2022-10-20T07:29:58.249Z,3.50
2022-10-20T07:31:02.252Z,3.43
2022-10-20T07:32:05.535Z,3.57
2022-10-20T07:33:09.359Z,3.00
2022-10-20T07:34:30.718Z,3.43
2022-10-20T07:35:20.717Z,3.62
2022-10-20T07:36:25.434Z,4.00
2022-10-20T07:37:28.715Z,3.50
2022-10-20T07:38:42.905Z,3.00
2022-10-20T07:39:49.660Z,3.50
2022-10-20T07:41:00.827Z,4.50
2022-10-20T07:42:10.591Z,4.50
2022-10-20T07:43:15.453Z,5.12
2022-10-20T07:45:41.977Z,5.00
2022-10-20T07:46:45.361Z,5.43
2022-10-20T07:47:49.363Z,4.71
2022-10-20T07:48:52.884Z,4.57
2022-10-20T07:49:56.452Z,5.00
2022-10-20T07:51:00.035Z,4.71
2022-10-20T07:52:04.392Z,5.43
2022-10-20T07:53:08.352Z,6.12
2022-10-20T07:54:12.038Z,5.50
2022-10-20T07:55:36.534Z,5.00
2022-10-20T07:56:20.347Z,5.87
2022-10-20T07:57:24.042Z,5.57
2022-10-20T07:58:28.039Z,5.12
2022-10-20T07:59:31.740Z,6.00
2022-10-20T08:00:35.134Z,6.00
2022-10-20T08:01:38.519Z,6.14
2022-10-20T08:02:41.726Z,6.43
2022-10-20T08:03:45.286Z,5.57
2022-10-20T08:04:48.878Z,5.50
2022-10-20T08:05:52.573Z,5.86
2022-10-20T08:06:55.962Z,6.14
2022-10-20T08:07:59.755Z,4.86
2022-10-20T08:09:03.279Z,4.86
2022-10-20T08:10:07.031Z,6.00
2022-10-20T08:11:10.555Z,6.14
2022-10-20T08:12:14.014Z,6.12
2022-10-20T08:13:17.909Z,4.71
2022-10-20T08:14:21.207Z,4.71
2022-10-20T08:15:27.348Z,5.00
2022-10-20T08:16:33.708Z,4.00
2022-10-20T08:17:42.743Z,4.37
2022-10-20T08:18:50.279Z,2.87
2022-10-20T08:20:14.958Z,3.87
2022-10-20T08:21:13.878Z,5.00
2022-10-20T08:22:17.155Z,4.57
2022-10-20T08:23:20.852Z,4.43
2022-10-20T08:24:24.055Z,4.37
2022-10-20T08:25:27.934Z,3.67
2022-10-20T08:26:31.745Z,5.29
2022-10-20T08:27:35.022Z,5.43
2022-10-20T08:28:38.454Z,4.00
2022-10-20T08:29:47.717Z,4.86
2022-10-20T08:30:47.224Z,6.00
2022-10-20T08:31:50.713Z,5.62
2022-10-20T08:32:54.303Z,5.14
2022-10-20T08:33:57.721Z,4.43
2022-10-20T08:35:01.790Z,4.86
2022-10-20T08:36:05.972Z,5.00
2022-10-20T08:37:09.572Z,5.12
2022-10-20T08:38:12.972Z,6.00
2022-10-20T08:39:16.649Z,6.00
2022-10-20T08:40:19.878Z,5.14
2022-10-20T08:41:23.881Z,5.00
2022-10-20T08:42:27.040Z,5.00
2022-10-20T08:43:30.358Z,5.43
2022-10-20T08:44:33.704Z,6.86
2022-10-20T08:45:38.525Z,6.57
2022-10-20T08:46:42.423Z,5.75
2022-10-20T08:47:46.331Z,4.87
2022-10-20T08:48:50.013Z,5.00
2022-10-20T08:49:53.638Z,6.00
2022-10-20T08:50:57.445Z,6.43
2022-10-20T08:52:01.617Z,6.62
2022-10-20T08:53:05.305Z,7.75
2022-10-20T08:54:08.896Z,9.13
2022-10-20T08:55:12.347Z,6.71
2022-10-20T08:56:15.774Z,5.86
2022-10-20T08:57:19.791Z,6.29
2022-10-20T08:58:23.303Z,7.00
2022-10-20T08:59:26.963Z,6.43
2022-10-20T09:00:30.553Z,5.86
2022-10-20T09:01:34.293Z,6.86
2022-10-20T09:02:38.055Z,7.00
2022-10-20T09:03:41.647Z,6.50
2022-10-20T09:04:44.934Z,6.14
2022-10-20T09:05:48.614Z,6.00
2022-10-20T09:06:52.410Z,5.00
2022-10-20T09:07:56.412Z,6.29
2022-10-20T09:09:00.271Z,6.29
2022-10-20T09:10:04.119Z,5.50
2022-10-20T09:11:07.895Z,6.00
2022-10-20T09:12:11.290Z,7.00
2022-10-20T09:13:15.002Z,7.67
2022-10-20T09:14:18.563Z,6.57
2022-10-20T09:15:22.161Z,6.00
2022-10-20T09:16:35.055Z,6.14
2022-10-20T09:17:30.570Z,5.50
2022-10-20T09:18:33.958Z,5.14
2022-10-20T09:19:37.452Z,6.00
2022-10-20T09:20:41.256Z,6.00
2022-10-20T09:21:44.737Z,6.00
2022-10-20T09:22:48.123Z,5.71
2022-10-20T09:24:55.100Z,7.00
2022-10-20T09:25:58.904Z,5.29
2022-10-20T09:27:02.282Z,4.86
2022-10-20T09:28:05.869Z,6.86
2022-10-20T09:29:13.447Z,6.62
2022-10-20T09:30:14.385Z,5.50
2022-10-20T09:31:18.100Z,5.57
2022-10-20T09:32:45.481Z,5.00
2022-10-20T09:33:26.498Z,4.87
2022-10-20T09:34:29.763Z,5.00
2022-10-20T09:35:33.384Z,6.00
2022-10-20T09:36:37.366Z,7.00
2022-10-20T09:37:40.418Z,5.71
2022-10-20T09:38:43.961Z,4.43
2022-10-20T09:39:51.311Z,6.50
2022-10-20T09:40:52.270Z,6.25
2022-10-20T09:41:55.959Z,3.50
2022-10-20T09:42:59.532Z,3.43
2022-10-20T09:44:03.123Z,3.50
2022-10-20T09:45:06.714Z,2.86
2022-10-20T09:46:10.098Z,3.14
2022-10-20T09:47:13.892Z,4.50
2022-10-20T09:48:17.655Z,3.57
2022-10-20T09:49:21.166Z,3.87
2022-10-20T09:50:24.824Z,4.00
2022-10-20T09:51:28.369Z,3.86
2022-10-20T09:52:31.725Z,4.43
2022-10-20T09:53:35.035Z,4.29
2022-10-20T09:54:38.627Z,3.00
2022-10-20T09:55:42.350Z,3.50
2022-10-20T09:56:46.116Z,3.57
2022-10-20T09:57:49.298Z,3.00
2022-10-20T09:58:52.586Z,2.71
2022-10-20T09:59:55.839Z,2.86
2022-10-20T10:01:00.624Z,2.00
2022-10-20T10:02:03.989Z,1.57
2022-10-20T10:03:07.800Z,2.43
2022-10-20T10:04:11.393Z,2.86
2022-10-20T10:05:14.956Z,1.57
2022-10-20T10:06:18.566Z,1.43
2022-10-20T10:07:22.343Z,2.43
2022-10-20T10:08:25.627Z,2.14
2022-10-20T10:09:29.418Z,1.71
2022-10-20T10:10:32.904Z,3.00
2022-10-20T10:11:37.113Z,3.00
2022-10-20T10:12:41.008Z,2.50
2022-10-20T10:13:44.912Z,2.50
2022-10-20T10:14:48.620Z,2.57
2022-10-20T10:15:51.988Z,2.43
2022-10-20T10:16:55.987Z,2.57
2022-10-20T10:17:59.273Z,2.50
2022-10-20T10:19:03.174Z,3.14
2022-10-20T10:20:06.874Z,2.87
2022-10-20T10:21:10.563Z,2.43
2022-10-20T10:22:14.054Z,3.00
2022-10-20T10:23:17.638Z,2.29
2022-10-20T10:24:20.929Z,2.86
2022-10-20T10:25:24.311Z,3.14
2022-10-20T10:26:27.654Z,2.29
2022-10-20T10:27:30.904Z,3.33
2022-10-20T10:28:34.159Z,3.67
2022-10-20T10:29:38.775Z,3.33
2022-10-20T10:30:43.940Z,3.50
2022-10-20T10:31:47.090Z,3.50
2022-10-20T10:32:50.504Z,3.57
2022-10-20T10:33:54.281Z,2.57
2022-10-20T10:34:58.067Z,3.00
2022-10-20T10:36:02.991Z,3.50
2022-10-20T10:37:06.591Z,3.00
2022-10-20T10:38:11.233Z,3.43
2022-10-20T10:39:15.425Z,3.50
2022-10-20T10:40:21.426Z,3.00
2022-10-20T10:44:21.782Z,3.00
2022-10-20T10:45:26.508Z,3.00
2022-10-20T10:50:32.081Z,3.50
2022-10-20T10:51:36.582Z,4.00
2022-10-20T10:55:48.341Z,3.50
2022-10-20T11:03:43.034Z,5.50
2022-10-20T11:06:11.544Z,3.87
2022-10-20T11:11:16.769Z,4.00
2022-10-20T11:12:23.817Z,4.00
2022-10-20T11:13:33.535Z,3.75
2022-10-20T11:14:36.963Z,4.00
2022-10-20T11:15:40.656Z,4.00
2022-10-20T11:16:57.489Z,3.25
2022-10-20T11:19:35.571Z,4.50
2022-10-20T11:22:01.084Z,3.25
2022-10-20T11:23:04.670Z,4.75
2022-10-20T11:24:11.336Z,4.57
2022-10-20T11:25:19.031Z,4.50
2022-10-20T11:27:45.969Z,4.50
2022-10-20T11:29:04.714Z,5.50
2022-10-20T11:30:09.698Z,5.50
2022-10-20T11:31:12.867Z,4.11
2022-10-20T11:32:17.622Z,4.86
2022-10-20T11:34:42.940Z,5.00
2022-10-20T11:35:45.817Z,6.37
2022-10-20T11:38:10.214Z,5.87
2022-10-20T11:39:13.899Z,5.00
2022-10-20T11:40:17.293Z,4.86
2022-10-20T11:41:21.392Z,4.00
2022-10-20T11:42:24.790Z,4.37
2022-10-20T11:43:31.233Z,5.50
2022-10-20T11:44:38.919Z,6.00
2022-10-20T11:45:47.455Z,5.87
2022-10-20T11:46:51.119Z,5.00
2022-10-20T11:47:54.819Z,4.50
2022-10-20T11:49:00.390Z,5.71
2022-10-20T11:50:03.236Z,6.00
2022-10-20T11:51:07.350Z,5.43
2022-10-20T11:52:11.052Z,5.50
2022-10-20T11:53:14.720Z,6.00
2022-10-20T11:54:18.209Z,5.14
2022-10-20T11:55:21.909Z,5.50
2022-10-20T11:56:25.099Z,6.14
2022-10-20T11:57:28.571Z,6.00
2022-10-20T11:58:31.966Z,5.71
2022-10-20T11:59:35.243Z,6.00
2022-10-20T12:00:40.343Z,6.00
2022-10-20T12:01:43.349Z,5.75
2022-10-20T12:02:47.040Z,5.14
2022-10-20T12:03:50.537Z,4.57
2022-10-20T12:04:54.050Z,5.86
2022-10-20T12:05:57.299Z,5.86
2022-10-20T12:07:00.110Z,7.29
2022-10-20T12:08:17.864Z,6.86
2022-10-20T12:09:07.925Z,6.00
2022-10-20T12:10:11.289Z,6.00
2022-10-20T12:11:14.848Z,5.00
2022-10-20T12:12:18.083Z,5.00
2022-10-20T12:13:21.522Z,5.00
2022-10-20T12:14:24.810Z,5.14
2022-10-20T12:15:28.188Z,4.86
2022-10-20T12:16:31.580Z,5.86
2022-10-20T12:17:34.663Z,6.14
2022-10-20T12:18:38.052Z,5.67
2022-10-20T12:19:41.471Z,6.00
2022-10-20T12:20:44.819Z,5.00
2022-10-20T12:21:48.100Z,4.71
2022-10-20T12:22:51.692Z,6.43
2022-10-20T12:23:54.979Z,7.00
2022-10-20T12:24:58.289Z,6.00
2022-10-20T12:26:01.757Z,4.43
2022-10-20T12:27:04.912Z,5.43
2022-10-20T12:28:08.220Z,6.00
2022-10-20T12:29:11.704Z,5.43
2022-10-20T12:30:14.992Z,5.43
2022-10-20T12:31:18.479Z,6.29
2022-10-20T12:32:21.883Z,7.00
2022-10-20T12:33:25.056Z,4.43
2022-10-20T12:34:28.227Z,5.00
2022-10-20T12:35:31.450Z,4.17
2022-10-20T12:36:34.692Z,4.71
2022-10-20T12:37:39.224Z,4.43
2022-10-20T12:38:42.696Z,4.00
2022-10-20T12:39:46.206Z,4.50
2022-10-20T12:42:10.779Z,4.00
2022-10-20T12:43:14.241Z,2.57
2022-10-20T12:44:17.448Z,6.71
2022-10-20T12:45:21.148Z,7.14
2022-10-20T12:46:24.433Z,6.00
2022-10-20T12:47:28.129Z,6.00
2022-10-20T12:48:31.536Z,5.14
2022-10-20T12:49:34.801Z,4.43
2022-10-20T12:50:38.104Z,5.86
2022-10-20T12:51:42.900Z,6.29
2022-10-20T12:52:47.445Z,4.50
2022-10-20T12:53:56.868Z,5.00
2022-10-20T12:55:00.532Z,5.00
2022-10-20T12:56:04.123Z,4.14
2022-10-20T12:57:07.925Z,3.43
2022-10-20T12:58:11.443Z,4.00
2022-10-20T12:59:14.820Z,4.86
2022-10-20T13:00:17.964Z,6.43
2022-10-20T13:01:21.304Z,6.33
2022-10-20T13:02:24.750Z,4.00
2022-10-20T13:03:28.142Z,4.00
2022-10-20T13:04:31.194Z,4.43
2022-10-20T13:05:42.455Z,4.67
2022-10-20T13:06:49.485Z,5.00
2022-10-20T13:07:54.040Z,5.50
2022-10-20T13:08:57.531Z,4.71
2022-10-20T13:10:03.526Z,4.50
2022-10-20T13:11:11.067Z,3.50
2022-10-20T13:12:14.499Z,4.37
2022-10-20T13:13:18.383Z,5.71
2022-10-20T13:14:21.459Z,3.37
2022-10-20T13:15:24.951Z,3.43
2022-10-20T13:23:55.690Z,4.00
2022-10-20T13:24:58.915Z,3.29
2022-10-20T13:26:02.399Z,4.57
2022-10-20T13:27:05.790Z,4.00
2022-10-20T13:28:09.377Z,4.86
2022-10-20T13:29:13.171Z,4.71
2022-10-20T13:30:16.370Z,4.29
2022-10-20T13:31:20.270Z,4.67
2022-10-20T13:32:23.345Z,4.00
2022-10-20T13:33:34.412Z,3.57
2022-10-20T13:34:31.551Z,4.50
2022-10-20T13:35:34.963Z,5.12
2022-10-20T13:36:38.313Z,5.00
2022-10-20T13:37:41.471Z,4.71
2022-10-20T13:38:44.879Z,5.00
2022-10-20T13:39:48.368Z,4.71
2022-10-20T13:40:51.830Z,4.75
2022-10-20T13:41:56.091Z,4.57
2022-10-20T13:43:00.993Z,4.87
2022-10-20T13:44:05.646Z,5.00
2022-10-20T13:45:09.105Z,5.00
2022-10-20T13:46:12.582Z,4.50
2022-10-20T13:47:16.061Z,5.29
2022-10-20T13:48:19.242Z,5.71
2022-10-20T13:49:22.536Z,3.71
2022-10-20T13:50:25.911Z,4.00
2022-10-20T13:51:29.211Z,5.43
2022-10-20T13:52:32.609Z,6.86
2022-10-20T13:53:35.852Z,6.71
2022-10-20T13:54:39.057Z,5.43
2022-10-20T13:55:42.345Z,5.00
2022-10-20T13:56:45.698Z,5.29
2022-10-20T13:57:51.806Z,5.86
2022-10-20T13:58:53.529Z,6.25
2022-10-20T13:59:56.922Z,5.86
2022-10-20T14:01:00.345Z,5.43
2022-10-20T14:02:03.590Z,6.00
2022-10-20T14:03:06.770Z,6.00
2022-10-20T14:04:10.260Z,6.86
2022-10-20T14:05:13.651Z,7.14
2022-10-20T14:06:17.047Z,6.00
2022-10-20T14:07:20.108Z,5.86
2022-10-20T14:08:23.630Z,5.00
2022-10-20T14:09:26.780Z,5.00
2022-10-20T14:10:29.858Z,5.43
2022-10-20T14:11:33.360Z,6.33
2022-10-20T14:12:36.812Z,5.57
2022-10-20T14:13:40.330Z,5.00
2022-10-20T14:14:43.609Z,5.71
2022-10-20T14:15:46.725Z,5.57
2022-10-20T14:16:50.194Z,5.00
2022-10-20T14:18:56.439Z,5.00
2022-10-20T14:19:59.929Z,5.00
2022-10-20T14:21:03.313Z,5.00
2022-10-20T14:22:06.798Z,4.57
2022-10-20T14:23:09.990Z,4.43
2022-10-20T14:24:13.154Z,5.43
2022-10-20T14:25:16.252Z,4.83
2022-10-20T14:26:19.327Z,5.00
2022-10-20T14:27:22.515Z,5.00
2022-10-20T14:28:25.802Z,5.29
2022-10-20T14:29:29.175Z,5.00
2022-10-20T14:30:32.491Z,4.71
2022-10-20T14:31:35.511Z,5.57
2022-10-20T14:32:38.721Z,6.00
2022-10-20T14:33:41.943Z,6.00
2022-10-20T14:34:44.986Z,6.00
2022-10-20T14:35:48.193Z,5.57
2022-10-20T14:36:51.388Z,5.67
2022-10-20T14:37:54.630Z,5.33
2022-10-20T14:38:57.689Z,5.33
2022-10-20T14:40:01.307Z,5.00
2022-10-20T14:41:04.479Z,3.86
2022-10-20T14:42:07.870Z,5.00
2022-10-20T14:43:11.153Z,5.00
2022-10-20T14:44:25.089Z,5.43
2022-10-20T14:45:18.879Z,5.50
2022-10-20T14:46:21.824Z,6.29
2022-10-20T14:47:25.043Z,6.57
2022-10-20T14:48:28.292Z,4.43
2022-10-20T14:49:31.365Z,5.14
2022-10-20T14:50:34.550Z,5.67
2022-10-20T14:51:37.942Z,5.33
2022-10-20T14:52:41.427Z,5.43
2022-10-20T14:53:44.501Z,5.00